createdAt,value
2023-02-16T00:01:53.662Z,47.00
2023-02-16T00:04:25.627Z,49.67
2023-02-16T00:06:52.997Z,45.47
2023-02-16T00:09:20.413Z,48.97
2023-02-16T00:12:06.512Z,44.15
2023-02-16T00:14:37.778Z,42.80
2023-02-16T00:17:05.299Z,46.28
2023-02-16T00:19:36.081Z,46.25
2023-02-16T00:22:04.036Z,43.13
2023-02-16T00:24:30.881Z,48.03
2023-02-16T00:26:58.335Z,51.20
2023-02-16T00:29:28.287Z,41.08
2023-02-16T00:31:56.186Z,42.42
2023-02-16T00:34:41.359Z,46.22
2023-02-16T00:37:10.725Z,45.13
2023-02-16T00:39:38.682Z,49.20
2023-02-16T00:42:10.665Z,48.22
2023-02-16T00:44:41.230Z,46.03
2023-02-16T00:47:30.315Z,46.15
2023-02-16T00:49:56.957Z,52.17
2023-02-16T00:52:23.551Z,49.27
2023-02-16T00:54:50.067Z,48.40
2023-02-16T00:57:18.946Z,51.83
2023-02-16T00:59:46.931Z,51.90
2023-02-16T01:02:13.585Z,54.50
2023-02-16T01:04:40.464Z,41.90
2023-02-16T01:07:30.879Z,48.45
2023-02-16T01:10:15.975Z,54.30
2023-02-16T01:12:44.188Z,51.35
2023-02-16T01:15:14.570Z,48.45
2023-02-16T01:17:41.356Z,54.23
2023-02-16T01:20:23.646Z,50.80
2023-02-16T01:22:50.473Z,56.92
2023-02-16T01:25:17.272Z,52.08
2023-02-16T01:27:45.695Z,53.85
2023-02-16T01:30:18.160Z,59.87
2023-02-16T01:32:51.313Z,53.75
2023-02-16T01:35:19.885Z,54.58
2023-02-16T01:37:46.481Z,51.45
2023-02-16T01:40:34.048Z,53.95
2023-02-16T01:43:13.643Z,51.10
2023-02-16T01:45:45.253Z,51.10
2023-02-16T01:48:25.835Z,53.38
2023-02-16T01:50:58.994Z,53.35
2023-02-16T01:53:38.110Z,45.03
2023-02-16T01:56:11.922Z,52.13
2023-02-16T01:58:42.401Z,53.15
2023-02-16T02:01:39.838Z,54.40
2023-02-16T02:04:39.795Z,42.90
2023-02-16T02:07:06.470Z,53.67
2023-02-16T02:09:45.109Z,55.33
2023-02-16T02:12:32.439Z,45.92
2023-02-16T02:14:59.626Z,52.70
2023-02-16T02:17:26.722Z,54.45
2023-02-16T02:20:16.107Z,54.20
2023-02-16T02:23:31.209Z,48.30
2023-02-16T02:26:35.582Z,47.63
2023-02-16T02:29:07.531Z,52.33
2023-02-16T02:31:48.852Z,48.13
2023-02-16T02:34:24.939Z,55.53
2023-02-16T02:37:10.849Z,56.67
2023-02-16T02:39:58.530Z,43.83
2023-02-16T02:42:33.563Z,52.55
2023-02-16T02:45:23.256Z,54.13
2023-02-16T02:47:50.559Z,51.38
2023-02-16T02:51:15.946Z,56.07
2023-02-16T02:53:48.095Z,54.47
2023-02-16T02:56:35.229Z,56.47
2023-02-16T02:59:26.613Z,52.13
2023-02-16T03:01:58.133Z,54.88
2023-02-16T03:04:28.690Z,54.40
2023-02-16T03:06:58.199Z,54.55
2023-02-16T03:09:25.667Z,59.20
2023-02-16T03:12:26.486Z,56.33
2023-02-16T03:14:58.372Z,59.03
2023-02-16T03:17:53.653Z,58.13
2023-02-16T03:20:38.814Z,59.35
2023-02-16T03:23:26.104Z,55.53
2023-02-16T03:26:12.119Z,57.05
2023-02-16T03:29:01.511Z,58.97
2023-02-16T03:31:35.800Z,59.00
2023-02-16T03:34:02.900Z,57.13
2023-02-16T03:36:32.915Z,55.88
2023-02-16T03:38:59.977Z,61.75
2023-02-16T03:41:30.883Z,55.58
2023-02-16T03:43:57.343Z,56.50
2023-02-16T03:46:23.826Z,55.90
2023-02-16T03:48:50.358Z,53.85
2023-02-16T03:51:16.842Z,56.10
2023-02-16T03:53:43.979Z,60.50
2023-02-16T03:56:10.551Z,58.20
2023-02-16T03:58:37.311Z,56.15
2023-02-16T04:01:03.951Z,56.08
2023-02-16T04:03:30.572Z,58.85
2023-02-16T04:05:57.050Z,55.53
2023-02-16T04:08:23.526Z,58.60
2023-02-16T04:10:50.638Z,58.85
2023-02-16T04:13:17.172Z,58.65
2023-02-16T04:15:43.980Z,58.85
2023-02-16T04:18:10.566Z,57.25
2023-02-16T04:20:37.075Z,56.50
2023-02-16T04:23:03.839Z,61.45
2023-02-16T04:25:30.753Z,55.70
2023-02-16T04:27:57.673Z,60.03
2023-02-16T04:30:28.181Z,57.20
2023-02-16T04:32:55.514Z,60.10
2023-02-16T04:35:22.288Z,58.45
2023-02-16T04:37:49.009Z,57.03
2023-02-16T04:40:17.104Z,57.58
2023-02-16T04:42:44.548Z,61.28
2023-02-16T04:45:11.818Z,63.70
2023-02-16T04:47:38.383Z,57.13
2023-02-16T04:50:05.953Z,60.03
2023-02-16T04:52:32.512Z,60.28
2023-02-16T04:54:59.478Z,61.67
2023-02-16T04:57:26.099Z,60.37
2023-02-16T04:59:52.561Z,58.35
2023-02-16T05:02:19.042Z,59.00
2023-02-16T05:04:45.591Z,62.60
2023-02-16T05:07:12.137Z,54.15
2023-02-16T05:09:38.665Z,57.23
2023-02-16T05:12:24.104Z,63.20
2023-02-16T05:14:50.791Z,58.80
2023-02-16T05:17:18.828Z,59.47
2023-02-16T05:19:48.513Z,59.42
2023-02-16T05:22:15.782Z,57.57
2023-02-16T05:24:42.758Z,61.80
2023-02-16T05:27:12.934Z,61.15
2023-02-16T05:29:39.457Z,58.15
2023-02-16T05:32:06.373Z,61.15
2023-02-16T05:34:32.883Z,57.60
2023-02-16T05:36:59.444Z,66.18
2023-02-16T05:39:25.959Z,61.63
2023-02-16T05:41:52.531Z,65.88
2023-02-16T05:44:19.323Z,56.25
2023-02-16T05:46:46.570Z,61.83
2023-02-16T05:49:14.808Z,62.50
2023-02-16T05:51:41.995Z,60.40
2023-02-16T05:54:10.757Z,60.33
2023-02-16T05:56:37.393Z,65.65
2023-02-16T05:59:03.833Z,70.00
2023-02-16T06:01:30.359Z,57.58
2023-02-16T06:03:57.346Z,60.20
2023-02-16T06:06:23.896Z,61.60
2023-02-16T06:08:50.443Z,73.07
2023-02-16T06:11:35.706Z,60.97
2023-02-16T06:14:08.034Z,64.15
2023-02-16T06:16:36.194Z,62.20
2023-02-16T06:19:02.829Z,61.70
2023-02-16T06:21:29.587Z,61.75
2023-02-16T06:23:56.635Z,65.27
2023-02-16T06:26:23.396Z,65.72
2023-02-16T06:28:50.046Z,61.50
2023-02-16T06:31:17.333Z,68.88
2023-02-16T06:33:43.858Z,61.97
2023-02-16T06:36:10.956Z,65.97
2023-02-16T06:38:37.514Z,64.90
2023-02-16T06:41:04.517Z,66.72
2023-02-16T06:43:31.267Z,63.53
2023-02-16T06:45:58.038Z,68.10
2023-02-16T06:48:24.639Z,67.50
2023-02-16T06:50:51.964Z,66.03
2023-02-16T06:53:18.561Z,65.45
2023-02-16T06:55:45.086Z,69.20
2023-02-16T06:58:12.254Z,60.83
2023-02-16T07:00:38.879Z,60.77
2023-02-16T07:03:06.964Z,67.00
2023-02-16T07:05:33.469Z,65.07
2023-02-16T07:08:00.003Z,66.10
2023-02-16T07:10:29.278Z,63.60
2023-02-16T07:12:59.083Z,62.33
2023-02-16T07:15:25.605Z,63.55
2023-02-16T07:17:52.173Z,65.40
2023-02-16T07:20:18.758Z,63.42
2023-02-16T07:22:45.334Z,67.88
2023-02-16T07:25:11.864Z,66.17
2023-02-16T07:27:38.449Z,60.70
2023-02-16T07:30:05.427Z,62.30
2023-02-16T07:32:31.937Z,66.85
2023-02-16T07:34:58.972Z,70.22
2023-02-16T07:37:25.448Z,68.97
2023-02-16T07:39:53.033Z,71.40
2023-02-16T07:42:20.695Z,72.75
2023-02-16T07:44:47.866Z,64.80
2023-02-16T07:47:14.510Z,65.70
2023-02-16T07:49:41.076Z,67.03
2023-02-16T07:52:07.569Z,66.20
2023-02-16T07:54:34.106Z,70.25
2023-02-16T07:57:00.654Z,66.63
2023-02-16T07:59:27.152Z,66.10
2023-02-16T08:01:53.700Z,67.73
2023-02-16T08:04:20.245Z,64.88
2023-02-16T08:06:48.602Z,70.32
2023-02-16T08:09:15.658Z,64.20
2023-02-16T08:11:42.269Z,67.68
2023-02-16T08:14:09.023Z,65.90
2023-02-16T08:16:35.695Z,60.72
2023-02-16T08:19:04.022Z,63.17
2023-02-16T08:21:33.410Z,62.55
2023-02-16T08:24:05.813Z,68.43
2023-02-16T08:26:43.093Z,65.10
2023-02-16T08:29:10.420Z,66.05
2023-02-16T08:31:38.268Z,61.30
2023-02-16T08:34:05.802Z,66.80
2023-02-16T08:36:35.136Z,63.30
2023-02-16T08:39:07.522Z,65.47
2023-02-16T08:41:36.496Z,58.22
2023-02-16T08:44:05.962Z,68.85
2023-02-16T08:46:34.169Z,63.33
2023-02-16T08:49:01.225Z,60.15
2023-02-16T08:51:30.501Z,63.63
2023-02-16T08:54:01.512Z,63.33
2023-02-16T08:56:29.817Z,62.78
2023-02-16T08:58:57.360Z,61.03
2023-02-16T09:01:24.022Z,62.55
2023-02-16T09:03:51.217Z,62.23
2023-02-16T09:06:21.313Z,60.08
2023-02-16T09:08:57.493Z,65.22
2023-02-16T09:11:24.687Z,65.07
2023-02-16T09:13:51.575Z,61.83
2023-02-16T09:16:22.495Z,66.43
2023-02-16T09:18:49.777Z,61.38
2023-02-16T09:21:21.203Z,61.25
2023-02-16T09:23:49.939Z,68.65
2023-02-16T09:26:18.194Z,60.80
2023-02-16T09:28:45.716Z,64.43
2023-02-16T09:31:30.862Z,59.00
2023-02-16T09:34:01.426Z,62.70
2023-02-16T09:36:28.787Z,66.43
2023-02-16T09:38:56.550Z,68.97
2023-02-16T09:41:41.508Z,60.10
2023-02-16T09:44:37.962Z,60.25
2023-02-16T09:47:11.581Z,61.65
2023-02-16T09:49:42.348Z,58.65
2023-02-16T09:52:08.799Z,58.40
2023-02-16T09:54:54.901Z,61.10
2023-02-16T09:57:43.898Z,59.45
2023-02-16T10:00:26.093Z,60.28
2023-02-16T10:03:10.232Z,61.40
2023-02-16T10:05:56.542Z,63.20
2023-02-16T10:08:31.234Z,61.27
2023-02-16T10:11:35.096Z,62.92
2023-02-16T10:14:24.521Z,61.75
2023-02-16T10:17:15.879Z,60.60
2023-02-16T10:19:52.445Z,62.53
2023-02-16T10:22:31.085Z,67.07
2023-02-16T10:25:04.756Z,61.92
2023-02-16T10:27:38.266Z,66.60
2023-02-16T10:30:18.629Z,61.22
2023-02-16T10:33:15.767Z,64.72
2023-02-16T10:35:52.308Z,69.00
2023-02-16T10:38:48.328Z,70.55
2023-02-16T10:41:27.904Z,63.40
2023-02-16T10:44:15.462Z,64.07
2023-02-16T10:46:47.072Z,68.95
2023-02-16T10:49:15.702Z,75.03
2023-02-16T10:51:49.003Z,65.68
2023-02-16T10:54:27.256Z,71.80
2023-02-16T10:57:04.796Z,68.68
2023-02-16T10:59:38.592Z,76.45
2023-02-16T11:02:17.333Z,75.70
2023-02-16T11:04:46.512Z,83.13
2023-02-16T11:07:16.872Z,78.10
2023-02-16T11:09:46.053Z,76.38
2023-02-16T11:12:41.967Z,75.80
2023-02-16T11:15:18.964Z,78.63
2023-02-16T11:18:04.812Z,82.80
2023-02-16T11:20:35.875Z,84.85
2023-02-16T11:23:17.660Z,85.15
2023-02-16T11:26:03.720Z,85.90
2023-02-16T11:28:33.555Z,87.40
2023-02-16T11:31:05.291Z,84.72
2023-02-16T11:33:32.924Z,87.70
2023-02-16T11:35:59.865Z,84.32
2023-02-16T11:38:35.952Z,90.10
2023-02-16T11:41:06.316Z,87.20
2023-02-16T11:43:36.498Z,89.47
2023-02-16T11:46:18.401Z,91.75
2023-02-16T11:48:45.570Z,89.30
2023-02-16T11:51:19.154Z,80.22
2023-02-16T11:53:45.989Z,93.17
2023-02-16T11:56:33.540Z,94.35
2023-02-16T11:59:20.761Z,95.63
2023-02-16T12:01:55.982Z,96.78
2023-02-16T12:04:42.266Z,94.43
2023-02-16T12:07:23.042Z,95.73
2023-02-16T12:09:49.670Z,93.53
2023-02-16T12:12:31.436Z,103.30
2023-02-16T12:15:03.857Z,95.47
2023-02-16T12:17:45.631Z,93.45
2023-02-16T12:20:18.464Z,88.53
2023-02-16T12:22:50.060Z,91.50
2023-02-16T12:25:37.732Z,95.65
2023-02-16T12:28:25.845Z,94.13
2023-02-16T12:31:07.363Z,91.13
2023-02-16T12:33:43.553Z,85.57
2023-02-16T12:36:44.063Z,86.22
2023-02-16T12:39:47.071Z,84.07
2023-02-16T12:42:28.660Z,89.30
2023-02-16T12:44:59.451Z,86.13
2023-02-16T12:47:30.919Z,96.43
2023-02-16T12:50:18.688Z,90.97
2023-02-16T12:52:51.272Z,90.75
2023-02-16T12:55:32.734Z,87.70
2023-02-16T12:58:08.437Z,91.97
2023-02-16T13:00:51.004Z,88.33
2023-02-16T13:03:40.864Z,82.75
2023-02-16T13:06:15.650Z,77.32
2023-02-16T13:09:28.785Z,88.20
2023-02-16T13:12:05.759Z,85.20
2023-02-16T13:14:37.114Z,81.57
2023-02-16T13:17:26.916Z,78.03
2023-02-16T13:19:53.546Z,76.90
2023-02-16T13:22:36.632Z,80.85
2023-02-16T13:25:22.194Z,76.05
2023-02-16T13:28:17.643Z,73.37
2023-02-16T13:31:16.094Z,70.80
2023-02-16T13:34:04.162Z,77.00
2023-02-16T13:36:49.645Z,73.40
2023-02-16T13:39:24.243Z,66.55
2023-02-16T13:42:06.473Z,74.97
2023-02-16T13:44:40.069Z,68.60
2023-02-16T13:47:12.740Z,65.57
2023-02-16T13:49:44.050Z,63.03
2023-02-16T13:52:27.317Z,70.63
2023-02-16T13:54:54.133Z,65.83
2023-02-16T13:57:50.671Z,61.97
2023-02-16T14:00:28.983Z,64.68
2023-02-16T14:03:04.949Z,69.95
2023-02-16T14:05:40.432Z,67.53
2023-02-16T14:08:11.565Z,61.40
2023-02-16T14:10:53.434Z,64.25
2023-02-16T14:13:25.649Z,59.75
2023-02-16T14:15:54.715Z,65.22
2023-02-16T14:18:34.851Z,63.25
2023-02-16T14:21:04.298Z,64.00
2023-02-16T14:23:34.608Z,56.20
2023-02-16T14:26:03.718Z,61.28
2023-02-16T14:28:33.747Z,47.78
2023-02-16T14:31:04.786Z,53.70
2023-02-16T14:33:43.738Z,54.73
2023-02-16T14:36:27.093Z,52.60
2023-02-16T14:38:58.400Z,54.08
2023-02-16T14:41:32.360Z,54.20
2023-02-16T14:44:23.312Z,50.25
2023-02-16T14:47:14.742Z,54.57
2023-02-16T14:50:19.025Z,48.75
2023-02-16T14:53:11.309Z,53.90
2023-02-16T14:56:01.432Z,50.17
2023-02-16T14:58:43.818Z,49.20
2023-02-16T15:01:16.322Z,50.77
2023-02-16T15:03:54.596Z,50.50
2023-02-16T15:06:42.803Z,48.92
2023-02-16T15:09:41.977Z,53.95
2023-02-16T15:12:21.903Z,50.42
2023-02-16T15:14:55.578Z,49.37
2023-02-16T15:17:39.069Z,51.60
2023-02-16T15:20:29.441Z,47.80
2023-02-16T15:23:02.189Z,46.22
2023-02-16T15:25:33.845Z,46.30
2023-02-16T15:28:10.047Z,47.90
2023-02-16T15:30:39.194Z,51.17
2023-02-16T15:33:14.071Z,48.67
2023-02-16T15:35:43.172Z,48.92
2023-02-16T15:38:12.773Z,44.92
2023-02-16T15:40:40.063Z,46.23
2023-02-16T15:43:24.143Z,52.35
2023-02-16T15:45:52.766Z,46.90
2023-02-16T15:48:34.458Z,43.83
2023-02-16T15:51:11.047Z,48.80
2023-02-16T15:53:41.573Z,50.00
2023-02-16T15:56:32.571Z,48.42
2023-02-16T15:59:01.988Z,44.95
2023-02-16T16:01:34.228Z,48.55
2023-02-16T16:04:03.408Z,43.60
2023-02-16T16:06:35.392Z,43.90
2023-02-16T16:09:06.029Z,49.08
2023-02-16T16:11:33.221Z,46.15
2023-02-16T16:14:00.905Z,44.05
2023-02-16T16:16:28.074Z,46.65
2023-02-16T16:18:54.673Z,40.07
2023-02-16T16:21:29.644Z,39.55
2023-02-16T16:24:01.762Z,42.10
2023-02-16T16:26:31.760Z,42.67
2023-02-16T16:28:58.713Z,40.97
2023-02-16T16:31:25.981Z,44.73
2023-02-16T16:34:04.996Z,42.63
2023-02-16T16:36:34.877Z,45.55
2023-02-16T16:39:22.513Z,43.30
2023-02-16T16:42:00.900Z,46.92
2023-02-16T16:44:39.336Z,41.60
2023-02-16T16:47:26.658Z,41.20
2023-02-16T16:50:09.327Z,41.13
2023-02-16T16:52:45.697Z,42.05
2023-02-16T16:55:21.539Z,46.08
2023-02-16T16:57:49.800Z,42.03
2023-02-16T17:00:17.509Z,43.00
2023-02-16T17:02:44.799Z,43.30
2023-02-16T17:05:12.031Z,41.97
2023-02-16T17:07:39.067Z,36.10
2023-02-16T17:10:06.462Z,43.10
2023-02-16T17:12:33.329Z,46.92
2023-02-16T17:15:01.711Z,46.80
2023-02-16T17:17:28.243Z,42.20
2023-02-16T17:19:54.792Z,47.10
2023-02-16T17:22:21.335Z,45.47
2023-02-16T17:24:48.001Z,44.88
2023-02-16T17:27:14.678Z,51.78
2023-02-16T17:29:43.053Z,50.92
2023-02-16T17:32:09.895Z,47.97
2023-02-16T17:34:36.476Z,59.33
2023-02-16T17:37:07.451Z,54.53
2023-02-16T17:39:35.202Z,56.13
2023-02-16T17:42:02.658Z,55.10
2023-02-16T17:44:29.274Z,57.20
2023-02-16T17:46:56.044Z,60.93
2023-02-16T17:49:22.562Z,57.60
2023-02-16T17:51:49.090Z,53.78
2023-02-16T17:54:15.622Z,55.58
2023-02-16T17:56:44.819Z,59.08
2023-02-16T17:59:15.260Z,59.53
2023-02-16T18:01:42.862Z,53.65
2023-02-16T18:04:09.674Z,60.03
2023-02-16T18:06:36.904Z,62.08
2023-02-16T18:09:03.677Z,56.70
2023-02-16T18:11:30.122Z,61.67
2023-02-16T18:13:56.717Z,56.17
2023-02-16T18:16:26.469Z,57.28
2023-02-16T18:18:53.324Z,57.95
2023-02-16T18:21:19.837Z,54.28
2023-02-16T18:23:46.411Z,57.70
2023-02-16T18:26:15.196Z,55.03
2023-02-16T18:28:41.873Z,58.00
2023-02-16T18:31:08.739Z,59.85
2023-02-16T18:33:35.419Z,53.83
2023-02-16T18:36:02.872Z,51.97
2023-02-16T18:38:29.575Z,57.22
2023-02-16T18:40:56.131Z,52.58
2023-02-16T18:43:23.506Z,56.50
2023-02-16T18:45:50.538Z,56.30
2023-02-16T18:48:17.100Z,60.73
2023-02-16T18:50:43.702Z,58.13
2023-02-16T18:53:10.192Z,60.30
2023-02-16T18:55:36.719Z,59.30
2023-02-16T18:58:07.714Z,57.33
2023-02-16T19:00:34.953Z,55.10
2023-02-16T19:03:01.560Z,60.55
2023-02-16T19:05:28.236Z,62.88
2023-02-16T19:07:54.865Z,65.13
2023-02-16T19:10:21.445Z,65.85
2023-02-16T19:12:47.928Z,63.10
2023-02-16T19:15:14.450Z,68.22
2023-02-16T19:17:40.996Z,75.05
2023-02-16T19:20:11.560Z,70.65
2023-02-16T19:22:38.100Z,66.50
2023-02-16T19:25:05.767Z,63.30
2023-02-16T19:27:33.033Z,63.60
2023-02-16T19:29:59.624Z,68.68
2023-02-16T19:32:26.513Z,69.82
2023-02-16T19:34:53.018Z,68.35
2023-02-16T19:37:19.559Z,63.90
2023-02-16T19:39:46.069Z,67.00
2023-02-16T19:42:12.565Z,62.78
2023-02-16T19:44:40.264Z,69.18
2023-02-16T19:47:07.487Z,65.53
2023-02-16T19:49:35.072Z,68.10
2023-02-16T19:52:04.052Z,65.97
2023-02-16T19:54:36.027Z,63.53
2023-02-16T19:57:03.824Z,60.03
2023-02-16T19:59:31.649Z,61.53
2023-02-16T20:01:58.990Z,61.53
2023-02-16T20:04:25.738Z,61.85
2023-02-16T20:06:54.288Z,63.28
2023-02-16T20:09:21.964Z,62.00
2023-02-16T20:11:48.657Z,58.83
2023-02-16T20:14:15.185Z,59.73
2023-02-16T20:16:42.067Z,57.97
2023-02-16T20:19:08.567Z,53.30
2023-02-16T20:21:35.045Z,59.22
2023-02-16T20:24:05.166Z,58.47
2023-02-16T20:26:35.229Z,58.23
2023-02-16T20:29:02.847Z,59.38
2023-02-16T20:31:35.658Z,54.05
2023-02-16T20:34:03.413Z,51.72
2023-02-16T20:36:29.958Z,55.28
2023-02-16T20:38:56.410Z,52.73
2023-02-16T20:41:23.117Z,53.53
2023-02-16T20:43:49.738Z,54.33
2023-02-16T20:46:16.975Z,48.80
2023-02-16T20:48:44.497Z,51.22
2023-02-16T20:51:12.352Z,52.17
2023-02-16T20:53:39.575Z,50.15
2023-02-16T20:56:14.819Z,51.92
2023-02-16T20:58:42.537Z,51.58
2023-02-16T21:01:20.421Z,49.33
2023-02-16T21:03:47.250Z,52.60
2023-02-16T21:06:15.029Z,51.83
2023-02-16T21:08:41.833Z,52.17
2023-02-16T21:11:08.437Z,50.97
2023-02-16T21:13:35.196Z,49.05
2023-02-16T21:16:01.672Z,50.00
2023-02-16T21:18:28.265Z,50.38
2023-02-16T21:20:54.758Z,46.88
2023-02-16T21:23:21.284Z,50.70
2023-02-16T21:25:47.873Z,46.15
2023-02-16T21:28:14.313Z,48.60
2023-02-16T21:30:41.464Z,47.97
2023-02-16T21:33:07.968Z,43.72
2023-02-16T21:35:34.518Z,44.13
2023-02-16T21:38:01.393Z,46.05
2023-02-16T21:40:46.466Z,46.60
2023-02-16T21:43:12.994Z,44.38
2023-02-16T21:45:39.525Z,48.03
2023-02-16T21:48:24.394Z,47.72
2023-02-16T21:50:51.029Z,44.55
2023-02-16T21:53:17.510Z,41.30
2023-02-16T21:56:03.029Z,42.40
2023-02-16T21:58:33.444Z,43.35
2023-02-16T22:01:00.516Z,42.92
2023-02-16T22:03:27.977Z,42.17
2023-02-16T22:05:54.564Z,42.60
2023-02-16T22:08:21.137Z,44.83
2023-02-16T22:10:47.746Z,43.65
2023-02-16T22:13:14.270Z,44.67
2023-02-16T22:15:40.766Z,42.78
2023-02-16T22:18:07.562Z,40.57
2023-02-16T22:20:34.214Z,40.70
2023-02-16T22:23:00.916Z,41.45
2023-02-16T22:25:27.457Z,40.05
2023-02-16T22:27:54.901Z,39.22
2023-02-16T22:30:21.520Z,38.23
2023-02-16T22:32:50.318Z,38.83
2023-02-16T22:35:17.406Z,34.85
2023-02-16T22:37:43.881Z,34.42
2023-02-16T22:40:10.436Z,34.33
2023-02-16T22:42:36.909Z,34.33
2023-02-16T22:45:04.038Z,37.10
2023-02-16T22:47:31.317Z,36.33
2023-02-16T22:49:57.925Z,35.22
2023-02-16T22:52:24.569Z,34.15
2023-02-16T22:54:54.262Z,33.30
2023-02-16T22:57:20.811Z,32.67
2023-02-16T22:59:47.331Z,30.75
2023-02-16T23:02:13.809Z,29.52
2023-02-16T23:04:43.147Z,27.83
2023-02-16T23:07:10.068Z,28.93
2023-02-16T23:09:36.648Z,28.52
2023-02-16T23:12:03.744Z,28.48
2023-02-16T23:14:30.675Z,26.38
2023-02-16T23:16:57.392Z,25.95
2023-02-16T23:19:26.102Z,22.67
2023-02-16T23:21:53.810Z,22.13
2023-02-16T23:24:22.864Z,21.02
2023-02-16T23:26:49.922Z,24.75
2023-02-16T23:29:16.832Z,23.30
2023-02-16T23:31:46.651Z,21.53
2023-02-16T23:34:13.959Z,25.48
2023-02-16T23:36:40.927Z,22.80
2023-02-16T23:39:10.990Z,21.90
2023-02-16T23:41:37.900Z,23.70
2023-02-16T23:44:05.171Z,20.73
2023-02-16T23:46:32.241Z,23.52
2023-02-16T23:48:58.908Z,23.90
2023-02-16T23:51:26.040Z,23.83
2023-02-16T23:53:52.575Z,22.15
2023-02-16T23:56:22.700Z,21.90
2023-02-16T23:58:49.802Z,21.35
